sensor_id;sensor_type;location;lat;lon;timestamp;P1;durP1;ratioP1;P2;durP2;ratioP2
77724;SDS011;66892;53.236;6.550;2023-05-07T00:01:17;29.08;;;13.60;;
77724;SDS011;66892;53.236;6.550;2023-05-07T00:03:43;29.42;;;14.32;;
77724;SDS011;66892;53.236;6.550;2023-05-07T00:06:09;25.42;;;13.98;;
77724;SDS011;66892;53.236;6.550;2023-05-07T00:08:35;25.95;;;13.02;;
77724;SDS011;66892;53.236;6.550;2023-05-07T00:11:01;27.77;;;14.00;;
77724;SDS011;66892;53.236;6.550;2023-05-07T00:13:28;30.52;;;14.75;;
77724;SDS011;66892;53.236;6.550;2023-05-07T00:15:56;26.58;;;14.52;;
77724;SDS011;66892;53.236;6.550;2023-05-07T00:18:23;26.25;;;14.30;;
77724;SDS011;66892;53.236;6.550;2023-05-07T00:20:49;29.30;;;15.15;;
77724;SDS011;66892;53.236;6.550;2023-05-07T00:23:15;25.67;;;13.00;;
77724;SDS011;66892;53.236;6.550;2023-05-07T00:25:41;30.50;;;14.65;;
77724;SDS011;66892;53.236;6.550;2023-05-07T00:28:07;31.35;;;13.85;;
77724;SDS011;66892;53.236;6.550;2023-05-07T00:30:33;26.30;;;13.77;;
77724;SDS011;66892;53.236;6.550;2023-05-07T00:32:59;27.75;;;15.00;;
77724;SDS011;66892;53.236;6.550;2023-05-07T00:35:27;32.42;;;15.55;;
77724;SDS011;66892;53.236;6.550;2023-05-07T00:37:53;30.30;;;14.38;;
77724;SDS011;66892;53.236;6.550;2023-05-07T00:40:19;27.90;;;15.35;;
77724;SDS011;66892;53.236;6.550;2023-05-07T00:42:45;26.75;;;13.63;;
77724;SDS011;66892;53.236;6.550;2023-05-07T00:45:12;32.40;;;16.10;;
77724;SDS011;66892;53.236;6.550;2023-05-07T00:47:38;26.65;;;15.38;;
77724;SDS011;66892;53.236;6.550;2023-05-07T00:50:05;31.50;;;15.73;;
77724;SDS011;66892;53.236;6.550;2023-05-07T00:52:34;30.25;;;15.40;;
77724;SDS011;66892;53.236;6.550;2023-05-07T00:55:00;27.75;;;14.82;;
77724;SDS011;66892;53.236;6.550;2023-05-07T00:57:29;27.52;;;15.05;;
77724;SDS011;66892;53.236;6.550;2023-05-07T00:59:59;26.52;;;14.27;;
77724;SDS011;66892;53.236;6.550;2023-05-07T01:02:25;28.08;;;13.75;;
77724;SDS011;66892;53.236;6.550;2023-05-07T01:04:51;30.75;;;15.93;;
77724;SDS011;66892;53.236;6.550;2023-05-07T01:07:17;30.00;;;15.27;;
77724;SDS011;66892;53.236;6.550;2023-05-07T01:09:45;28.77;;;15.27;;
77724;SDS011;66892;53.236;6.550;2023-05-07T01:12:11;27.70;;;15.90;;
77724;SDS011;66892;53.236;6.550;2023-05-07T01:14:38;29.45;;;14.93;;
77724;SDS011;66892;53.236;6.550;2023-05-07T01:17:04;32.25;;;16.33;;
77724;SDS011;66892;53.236;6.550;2023-05-07T01:19:30;29.88;;;15.20;;
77724;SDS011;66892;53.236;6.550;2023-05-07T01:21:59;32.53;;;15.35;;
77724;SDS011;66892;53.236;6.550;2023-05-07T01:24:30;27.55;;;14.90;;
77724;SDS011;66892;53.236;6.550;2023-05-07T01:26:57;27.10;;;14.85;;
77724;SDS011;66892;53.236;6.550;2023-05-07T01:29:23;28.70;;;15.95;;
77724;SDS011;66892;53.236;6.550;2023-05-07T01:31:49;28.65;;;16.10;;
77724;SDS011;66892;53.236;6.550;2023-05-07T01:34:17;31.23;;;17.02;;
77724;SDS011;66892;53.236;6.550;2023-05-07T01:36:45;32.88;;;16.52;;
77724;SDS011;66892;53.236;6.550;2023-05-07T01:39:12;27.83;;;14.65;;
77724;SDS011;66892;53.236;6.550;2023-05-07T01:41:40;28.73;;;15.23;;
77724;SDS011;66892;53.236;6.550;2023-05-07T01:44:07;29.13;;;15.05;;
77724;SDS011;66892;53.236;6.550;2023-05-07T01:46:35;24.13;;;14.05;;
77724;SDS011;66892;53.236;6.550;2023-05-07T01:49:01;25.88;;;15.57;;
77724;SDS011;66892;53.236;6.550;2023-05-07T01:51:27;27.88;;;14.40;;
77724;SDS011;66892;53.236;6.550;2023-05-07T01:53:54;25.23;;;14.25;;
77724;SDS011;66892;53.236;6.550;2023-05-07T01:56:20;24.92;;;14.15;;
77724;SDS011;66892;53.236;6.550;2023-05-07T01:58:47;31.33;;;15.57;;
77724;SDS011;66892;53.236;6.550;2023-05-07T02:01:14;25.92;;;13.40;;
77724;SDS011;66892;53.236;6.550;2023-05-07T02:03:40;29.58;;;13.75;;
77724;SDS011;66892;53.236;6.550;2023-05-07T02:06:06;29.80;;;15.45;;
77724;SDS011;66892;53.236;6.550;2023-05-07T02:08:32;29.77;;;15.43;;
77724;SDS011;66892;53.236;6.550;2023-05-07T02:10:58;28.13;;;15.18;;
77724;SDS011;66892;53.236;6.550;2023-05-07T02:13:25;28.70;;;15.02;;
77724;SDS011;66892;53.236;6.550;2023-05-07T02:15:53;30.83;;;15.55;;
77724;SDS011;66892;53.236;6.550;2023-05-07T02:18:19;31.98;;;16.17;;
77724;SDS011;66892;53.236;6.550;2023-05-07T02:20:45;29.35;;;15.85;;
77724;SDS011;66892;53.236;6.550;2023-05-07T02:23:11;28.67;;;16.58;;
77724;SDS011;66892;53.236;6.550;2023-05-07T02:25:37;27.15;;;14.60;;
77724;SDS011;66892;53.236;6.550;2023-05-07T02:28:03;28.00;;;15.23;;
77724;SDS011;66892;53.236;6.550;2023-05-07T02:30:30;26.42;;;15.70;;
77724;SDS011;66892;53.236;6.550;2023-05-07T02:32:57;34.63;;;15.98;;
77724;SDS011;66892;53.236;6.550;2023-05-07T02:35:23;28.73;;;14.20;;
77724;SDS011;66892;53.236;6.550;2023-05-07T02:37:49;28.20;;;15.35;;
77724;SDS011;66892;53.236;6.550;2023-05-07T02:40:15;26.15;;;14.65;;
77724;SDS011;66892;53.236;6.550;2023-05-07T02:42:42;29.90;;;16.35;;
77724;SDS011;66892;53.236;6.550;2023-05-07T02:45:08;34.35;;;16.80;;
77724;SDS011;66892;53.236;6.550;2023-05-07T02:47:35;30.58;;;16.23;;
77724;SDS011;66892;53.236;6.550;2023-05-07T02:50:02;33.90;;;18.92;;
77724;SDS011;66892;53.236;6.550;2023-05-07T02:52:29;32.45;;;17.20;;
77724;SDS011;66892;53.236;6.550;2023-05-07T02:54:55;30.80;;;17.75;;
77724;SDS011;66892;53.236;6.550;2023-05-07T02:57:21;34.00;;;17.67;;
77724;SDS011;66892;53.236;6.550;2023-05-07T02:59:47;33.95;;;17.83;;
77724;SDS011;66892;53.236;6.550;2023-05-07T03:02:13;31.90;;;16.20;;
77724;SDS011;66892;53.236;6.550;2023-05-07T03:04:39;30.25;;;15.93;;
77724;SDS011;66892;53.236;6.550;2023-05-07T03:07:07;32.38;;;17.08;;
77724;SDS011;66892;53.236;6.550;2023-05-07T03:09:33;39.70;;;18.70;;
77724;SDS011;66892;53.236;6.550;2023-05-07T03:11:59;31.48;;;17.15;;
77724;SDS011;66892;53.236;6.550;2023-05-07T03:14:25;28.13;;;15.43;;
77724;SDS011;66892;53.236;6.550;2023-05-07T03:16:51;29.58;;;16.60;;
77724;SDS011;66892;53.236;6.550;2023-05-07T03:19:17;29.08;;;15.88;;
77724;SDS011;66892;53.236;6.550;2023-05-07T03:21:43;28.35;;;15.30;;
77724;SDS011;66892;53.236;6.550;2023-05-07T03:24:10;30.58;;;15.93;;
77724;SDS011;66892;53.236;6.550;2023-05-07T03:26:36;33.20;;;15.68;;
77724;SDS011;66892;53.236;6.550;2023-05-07T03:29:02;34.25;;;16.95;;
77724;SDS011;66892;53.236;6.550;2023-05-07T03:31:28;26.40;;;14.07;;
77724;SDS011;66892;53.236;6.550;2023-05-07T03:33:55;32.35;;;16.77;;
77724;SDS011;66892;53.236;6.550;2023-05-07T03:36:22;32.13;;;15.30;;
77724;SDS011;66892;53.236;6.550;2023-05-07T03:38:49;30.70;;;15.65;;
77724;SDS011;66892;53.236;6.550;2023-05-07T03:41:17;27.67;;;16.02;;
77724;SDS011;66892;53.236;6.550;2023-05-07T03:43:43;29.85;;;14.73;;
77724;SDS011;66892;53.236;6.550;2023-05-07T03:46:09;32.35;;;15.88;;
77724;SDS011;66892;53.236;6.550;2023-05-07T03:48:35;29.63;;;15.27;;
77724;SDS011;66892;53.236;6.550;2023-05-07T03:51:01;30.17;;;16.02;;
77724;SDS011;66892;53.236;6.550;2023-05-07T03:53:27;30.00;;;15.00;;
77724;SDS011;66892;53.236;6.550;2023-05-07T03:55:53;29.27;;;15.43;;
77724;SDS011;66892;53.236;6.550;2023-05-07T03:58:20;29.25;;;15.00;;
77724;SDS011;66892;53.236;6.550;2023-05-07T04:00:46;27.17;;;15.40;;
77724;SDS011;66892;53.236;6.550;2023-05-07T04:03:12;30.08;;;15.35;;
77724;SDS011;66892;53.236;6.550;2023-05-07T04:05:38;31.92;;;15.27;;
77724;SDS011;66892;53.236;6.550;2023-05-07T04:08:04;30.42;;;15.35;;
77724;SDS011;66892;53.236;6.550;2023-05-07T04:10:31;28.63;;;15.68;;
77724;SDS011;66892;53.236;6.550;2023-05-07T04:12:57;29.88;;;14.52;;
77724;SDS011;66892;53.236;6.550;2023-05-07T04:15:24;28.58;;;15.63;;
77724;SDS011;66892;53.236;6.550;2023-05-07T04:17:50;33.53;;;15.48;;
77724;SDS011;66892;53.236;6.550;2023-05-07T04:20:16;31.00;;;16.15;;
77724;SDS011;66892;53.236;6.550;2023-05-07T04:22:43;30.40;;;15.52;;
77724;SDS011;66892;53.236;6.550;2023-05-07T04:25:09;30.13;;;16.73;;
77724;SDS011;66892;53.236;6.550;2023-05-07T04:27:35;32.67;;;16.42;;
77724;SDS011;66892;53.236;6.550;2023-05-07T04:30:01;32.83;;;16.50;;
77724;SDS011;66892;53.236;6.550;2023-05-07T04:32:29;33.85;;;16.38;;
77724;SDS011;66892;53.236;6.550;2023-05-07T04:34:55;29.10;;;15.30;;
77724;SDS011;66892;53.236;6.550;2023-05-07T04:37:21;29.00;;;14.98;;
77724;SDS011;66892;53.236;6.550;2023-05-07T04:39:47;26.85;;;14.55;;
77724;SDS011;66892;53.236;6.550;2023-05-07T04:42:14;25.65;;;14.75;;
77724;SDS011;66892;53.236;6.550;2023-05-07T04:44:41;28.90;;;15.35;;
77724;SDS011;66892;53.236;6.550;2023-05-07T04:47:07;24.42;;;13.70;;
77724;SDS011;66892;53.236;6.550;2023-05-07T04:49:34;27.65;;;15.07;;
77724;SDS011;66892;53.236;6.550;2023-05-07T04:52:00;29.98;;;14.90;;
77724;SDS011;66892;53.236;6.550;2023-05-07T04:54:26;27.85;;;14.23;;
77724;SDS011;66892;53.236;6.550;2023-05-07T04:56:52;29.42;;;14.48;;
77724;SDS011;66892;53.236;6.550;2023-05-07T04:59:18;25.67;;;14.68;;
77724;SDS011;66892;53.236;6.550;2023-05-07T05:01:44;25.48;;;14.65;;
77724;SDS011;66892;53.236;6.550;2023-05-07T05:04:10;25.88;;;14.30;;
77724;SDS011;66892;53.236;6.550;2023-05-07T05:06:38;29.65;;;15.30;;
77724;SDS011;66892;53.236;6.550;2023-05-07T05:09:04;26.92;;;13.70;;
77724;SDS011;66892;53.236;6.550;2023-05-07T05:11:30;30.13;;;12.93;;
77724;SDS011;66892;53.236;6.550;2023-05-07T05:13:56;23.23;;;13.15;;
77724;SDS011;66892;53.236;6.550;2023-05-07T05:16:22;23.48;;;12.65;;
77724;SDS011;66892;53.236;6.550;2023-05-07T05:18:48;27.00;;;14.15;;
77724;SDS011;66892;53.236;6.550;2023-05-07T05:21:14;24.67;;;14.48;;
77724;SDS011;66892;53.236;6.550;2023-05-07T05:23:41;24.63;;;14.32;;
77724;SDS011;66892;53.236;6.550;2023-05-07T05:26:08;28.02;;;14.10;;
77724;SDS011;66892;53.236;6.550;2023-05-07T05:28:34;25.63;;;13.90;;
77724;SDS011;66892;53.236;6.550;2023-05-07T05:31:00;22.15;;;12.18;;
77724;SDS011;66892;53.236;6.550;2023-05-07T05:33:26;24.42;;;13.68;;
77724;SDS011;66892;53.236;6.550;2023-05-07T05:35:53;27.00;;;14.52;;
77724;SDS011;66892;53.236;6.550;2023-05-07T05:38:19;26.05;;;14.25;;
77724;SDS011;66892;53.236;6.550;2023-05-07T05:40:47;26.20;;;12.60;;
77724;SDS011;66892;53.236;6.550;2023-05-07T05:43:13;20.92;;;12.13;;
77724;SDS011;66892;53.236;6.550;2023-05-07T05:45:40;26.15;;;12.85;;
77724;SDS011;66892;53.236;6.550;2023-05-07T05:48:06;25.65;;;13.63;;
77724;SDS011;66892;53.236;6.550;2023-05-07T05:50:32;24.38;;;13.80;;
77724;SDS011;66892;53.236;6.550;2023-05-07T05:52:58;22.70;;;12.85;;
77724;SDS011;66892;53.236;6.550;2023-05-07T05:55:24;23.10;;;14.05;;
77724;SDS011;66892;53.236;6.550;2023-05-07T05:57:51;24.25;;;12.45;;
77724;SDS011;66892;53.236;6.550;2023-05-07T06:00:17;27.23;;;12.80;;
77724;SDS011;66892;53.236;6.550;2023-05-07T06:02:44;20.30;;;11.82;;
77724;SDS011;66892;53.236;6.550;2023-05-07T06:05:10;21.25;;;12.10;;
77724;SDS011;66892;53.236;6.550;2023-05-07T06:07:36;21.40;;;11.55;;
77724;SDS011;66892;53.236;6.550;2023-05-07T06:10:02;22.55;;;12.75;;
77724;SDS011;66892;53.236;6.550;2023-05-07T06:12:28;24.30;;;12.35;;
77724;SDS011;66892;53.236;6.550;2023-05-07T06:14:56;25.67;;;12.90;;
77724;SDS011;66892;53.236;6.550;2023-05-07T06:17:22;24.05;;;12.40;;
77724;SDS011;66892;53.236;6.550;2023-05-07T06:19:48;21.50;;;12.10;;
77724;SDS011;66892;53.236;6.550;2023-05-07T06:22:14;24.80;;;11.95;;
77724;SDS011;66892;53.236;6.550;2023-05-07T06:24:40;21.00;;;12.30;;
77724;SDS011;66892;53.236;6.550;2023-05-07T06:27:06;24.02;;;13.52;;
77724;SDS011;66892;53.236;6.550;2023-05-07T06:29:32;22.75;;;11.50;;
77724;SDS011;66892;53.236;6.550;2023-05-07T06:32:07;21.52;;;12.52;;
77724;SDS011;66892;53.236;6.550;2023-05-07T06:34:33;23.38;;;13.32;;
77724;SDS011;66892;53.236;6.550;2023-05-07T06:36:59;25.25;;;14.25;;
77724;SDS011;66892;53.236;6.550;2023-05-07T06:39:25;29.73;;;14.82;;
77724;SDS011;66892;53.236;6.550;2023-05-07T06:41:51;25.52;;;14.45;;
77724;SDS011;66892;53.236;6.550;2023-05-07T06:44:17;23.88;;;14.35;;
77724;SDS011;66892;53.236;6.550;2023-05-07T06:46:43;23.85;;;15.35;;
77724;SDS011;66892;53.236;6.550;2023-05-07T06:49:12;23.30;;;13.80;;
77724;SDS011;66892;53.236;6.550;2023-05-07T06:51:38;25.77;;;13.65;;
77724;SDS011;66892;53.236;6.550;2023-05-07T06:54:04;25.23;;;13.88;;
77724;SDS011;66892;53.236;6.550;2023-05-07T06:56:30;23.73;;;13.77;;
77724;SDS011;66892;53.236;6.550;2023-05-07T06:58:56;22.80;;;13.13;;
77724;SDS011;66892;53.236;6.550;2023-05-07T07:01:22;24.77;;;13.82;;
77724;SDS011;66892;53.236;6.550;2023-05-07T07:03:48;22.92;;;12.18;;
77724;SDS011;66892;53.236;6.550;2023-05-07T07:06:16;20.67;;;13.23;;
77724;SDS011;66892;53.236;6.550;2023-05-07T07:08:42;23.65;;;12.85;;
77724;SDS011;66892;53.236;6.550;2023-05-07T07:11:08;22.42;;;11.82;;
77724;SDS011;66892;53.236;6.550;2023-05-07T07:13:34;18.08;;;11.57;;
77724;SDS011;66892;53.236;6.550;2023-05-07T07:16:00;21.52;;;11.73;;
77724;SDS011;66892;53.236;6.550;2023-05-07T07:18:26;21.30;;;11.02;;
77724;SDS011;66892;53.236;6.550;2023-05-07T07:20:52;21.38;;;10.52;;
77724;SDS011;66892;53.236;6.550;2023-05-07T07:23:20;21.83;;;11.77;;
77724;SDS011;66892;53.236;6.550;2023-05-07T07:25:46;23.52;;;11.52;;
77724;SDS011;66892;53.236;6.550;2023-05-07T07:28:12;20.85;;;11.18;;
77724;SDS011;66892;53.236;6.550;2023-05-07T07:30:38;24.05;;;12.57;;
77724;SDS011;66892;53.236;6.550;2023-05-07T07:33:05;19.52;;;10.82;;
77724;SDS011;66892;53.236;6.550;2023-05-07T07:35:31;21.38;;;10.85;;
77724;SDS011;66892;53.236;6.550;2023-05-07T07:37:57;21.45;;;11.65;;
77724;SDS011;66892;53.236;6.550;2023-05-07T07:40:25;18.95;;;11.60;;
77724;SDS011;66892;53.236;6.550;2023-05-07T07:42:51;22.65;;;12.13;;
77724;SDS011;66892;53.236;6.550;2023-05-07T07:45:17;20.75;;;12.35;;
77724;SDS011;66892;53.236;6.550;2023-05-07T07:47:43;20.20;;;11.15;;
77724;SDS011;66892;53.236;6.550;2023-05-07T07:50:09;23.70;;;12.20;;
77724;SDS011;66892;53.236;6.550;2023-05-07T07:52:35;21.65;;;10.43;;
77724;SDS011;66892;53.236;6.550;2023-05-07T07:55:02;22.85;;;11.95;;
77724;SDS011;66892;53.236;6.550;2023-05-07T07:57:30;22.38;;;11.63;;
77724;SDS011;66892;53.236;6.550;2023-05-07T07:59:56;22.00;;;12.10;;
77724;SDS011;66892;53.236;6.550;2023-05-07T08:02:22;20.48;;;12.63;;
77724;SDS011;66892;53.236;6.550;2023-05-07T08:04:48;19.90;;;11.48;;
77724;SDS011;66892;53.236;6.550;2023-05-07T08:07:14;21.17;;;11.27;;
77724;SDS011;66892;53.236;6.550;2023-05-07T08:09:40;20.73;;;12.63;;
77724;SDS011;66892;53.236;6.550;2023-05-07T08:12:06;24.08;;;11.88;;
77724;SDS011;66892;53.236;6.550;2023-05-07T08:14:34;18.83;;;10.48;;
77724;SDS011;66892;53.236;6.550;2023-05-07T08:17:01;21.35;;;11.60;;
77724;SDS011;66892;53.236;6.550;2023-05-07T08:19:28;20.42;;;11.52;;
77724;SDS011;66892;53.236;6.550;2023-05-07T08:21:54;22.50;;;12.20;;
77724;SDS011;66892;53.236;6.550;2023-05-07T08:24:21;20.33;;;11.27;;
77724;SDS011;66892;53.236;6.550;2023-05-07T08:26:47;21.48;;;11.90;;
77724;SDS011;66892;53.236;6.550;2023-05-07T08:29:13;23.05;;;12.50;;
77724;SDS011;66892;53.236;6.550;2023-05-07T08:31:40;20.52;;;11.27;;
77724;SDS011;66892;53.236;6.550;2023-05-07T08:34:06;19.27;;;11.40;;
77724;SDS011;66892;53.236;6.550;2023-05-07T08:36:32;23.70;;;11.00;;
77724;SDS011;66892;53.236;6.550;2023-05-07T08:38:58;21.08;;;11.68;;
77724;SDS011;66892;53.236;6.550;2023-05-07T08:41:25;24.10;;;12.27;;
77724;SDS011;66892;53.236;6.550;2023-05-07T08:43:51;22.58;;;11.55;;
77724;SDS011;66892;53.236;6.550;2023-05-07T08:46:18;18.50;;;10.23;;
77724;SDS011;66892;53.236;6.550;2023-05-07T08:48:46;21.27;;;11.13;;
77724;SDS011;66892;53.236;6.550;2023-05-07T08:51:14;19.00;;;11.35;;
77724;SDS011;66892;53.236;6.550;2023-05-07T08:53:41;20.40;;;10.98;;
77724;SDS011;66892;53.236;6.550;2023-05-07T08:56:08;22.60;;;12.73;;
77724;SDS011;66892;53.236;6.550;2023-05-07T08:58:34;20.27;;;11.65;;
77724;SDS011;66892;53.236;6.550;2023-05-07T09:01:01;19.00;;;12.20;;
77724;SDS011;66892;53.236;6.550;2023-05-07T09:03:31;18.98;;;10.10;;
77724;SDS011;66892;53.236;6.550;2023-05-07T09:05:58;20.13;;;11.40;;
77724;SDS011;66892;53.236;6.550;2023-05-07T09:08:24;22.77;;;12.40;;
77724;SDS011;66892;53.236;6.550;2023-05-07T09:10:51;20.48;;;11.63;;
77724;SDS011;66892;53.236;6.550;2023-05-07T09:13:17;19.77;;;10.95;;
77724;SDS011;66892;53.236;6.550;2023-05-07T09:15:43;20.15;;;11.90;;
77724;SDS011;66892;53.236;6.550;2023-05-07T09:18:10;18.38;;;10.88;;
77724;SDS011;66892;53.236;6.550;2023-05-07T09:20:36;19.77;;;10.90;;
77724;SDS011;66892;53.236;6.550;2023-05-07T09:23:03;18.02;;;11.95;;
77724;SDS011;66892;53.236;6.550;2023-05-07T09:25:30;20.10;;;11.25;;
77724;SDS011;66892;53.236;6.550;2023-05-07T09:27:57;18.77;;;10.05;;
77724;SDS011;66892;53.236;6.550;2023-05-07T09:30:25;17.25;;;9.60;;
77724;SDS011;66892;53.236;6.550;2023-05-07T09:32:53;18.65;;;10.35;;
77724;SDS011;66892;53.236;6.550;2023-05-07T09:35:19;19.70;;;11.20;;
77724;SDS011;66892;53.236;6.550;2023-05-07T09:37:47;18.85;;;11.05;;
77724;SDS011;66892;53.236;6.550;2023-05-07T09:40:21;16.98;;;11.30;;
77724;SDS011;66892;53.236;6.550;2023-05-07T09:42:48;17.83;;;10.43;;
77724;SDS011;66892;53.236;6.550;2023-05-07T09:45:15;19.27;;;10.90;;
77724;SDS011;66892;53.236;6.550;2023-05-07T09:47:41;17.83;;;10.18;;
77724;SDS011;66892;53.236;6.550;2023-05-07T09:50:10;19.75;;;10.30;;
77724;SDS011;66892;53.236;6.550;2023-05-07T09:52:38;17.00;;;10.13;;
77724;SDS011;66892;53.236;6.550;2023-05-07T09:55:06;17.67;;;9.77;;
77724;SDS011;66892;53.236;6.550;2023-05-07T09:57:34;20.08;;;11.15;;
77724;SDS011;66892;53.236;6.550;2023-05-07T10:00:02;19.15;;;9.98;;
77724;SDS011;66892;53.236;6.550;2023-05-07T10:02:34;18.30;;;11.05;;
77724;SDS011;66892;53.236;6.550;2023-05-07T10:05:02;15.45;;;10.15;;
77724;SDS011;66892;53.236;6.550;2023-05-07T10:07:29;18.35;;;9.98;;
77724;SDS011;66892;53.236;6.550;2023-05-07T10:09:55;17.83;;;10.35;;
77724;SDS011;66892;53.236;6.550;2023-05-07T10:12:21;18.55;;;10.30;;
77724;SDS011;66892;53.236;6.550;2023-05-07T10:14:50;17.90;;;9.90;;
77724;SDS011;66892;53.236;6.550;2023-05-07T10:17:18;17.02;;;9.63;;
77724;SDS011;66892;53.236;6.550;2023-05-07T10:19:45;17.05;;;10.00;;
77724;SDS011;66892;53.236;6.550;2023-05-07T10:22:12;18.05;;;10.60;;
77724;SDS011;66892;53.236;6.550;2023-05-07T10:24:40;18.13;;;10.52;;
77724;SDS011;66892;53.236;6.550;2023-05-07T10:27:10;17.40;;;9.52;;
77724;SDS011;66892;53.236;6.550;2023-05-07T10:29:39;15.07;;;10.30;;
77724;SDS011;66892;53.236;6.550;2023-05-07T10:32:24;16.88;;;9.50;;
77724;SDS011;66892;53.236;6.550;2023-05-07T10:35:00;18.20;;;9.90;;
77724;SDS011;66892;53.236;6.550;2023-05-07T10:37:28;17.70;;;9.15;;
77724;SDS011;66892;53.236;6.550;2023-05-07T10:39:55;18.13;;;9.68;;
77724;SDS011;66892;53.236;6.550;2023-05-07T10:42:21;17.65;;;10.00;;
77724;SDS011;66892;53.236;6.550;2023-05-07T10:44:47;16.55;;;10.02;;
77724;SDS011;66892;53.236;6.550;2023-05-07T10:47:15;15.90;;;9.00;;
77724;SDS011;66892;53.236;6.550;2023-05-07T10:55:50;15.05;;;9.90;;
77724;SDS011;66892;53.236;6.550;2023-05-07T10:58:22;17.13;;;9.57;;
77724;SDS011;66892;53.236;6.550;2023-05-07T11:00:55;16.23;;;10.15;;
77724;SDS011;66892;53.236;6.550;2023-05-07T11:03:24;15.77;;;8.88;;
77724;SDS011;66892;53.236;6.550;2023-05-07T11:06:08;16.60;;;8.93;;
77724;SDS011;66892;53.236;6.550;2023-05-07T11:11:20;14.43;;;9.18;;
77724;SDS011;66892;53.236;6.550;2023-05-07T11:14:10;14.95;;;8.82;;
77724;SDS011;66892;53.236;6.550;2023-05-07T11:16:36;15.75;;;9.30;;
77724;SDS011;66892;53.236;6.550;2023-05-07T11:19:04;13.07;;;8.25;;
77724;SDS011;66892;53.236;6.550;2023-05-07T11:21:34;14.20;;;9.43;;
77724;SDS011;66892;53.236;6.550;2023-05-07T11:24:01;12.02;;;8.50;;
77724;SDS011;66892;53.236;6.550;2023-05-07T11:26:29;14.07;;;8.57;;
77724;SDS011;66892;53.236;6.550;2023-05-07T11:28:57;14.63;;;8.52;;
77724;SDS011;66892;53.236;6.550;2023-05-07T11:31:26;12.15;;;8.15;;
77724;SDS011;66892;53.236;6.550;2023-05-07T11:33:54;12.40;;;8.23;;
77724;SDS011;66892;53.236;6.550;2023-05-07T11:36:22;14.65;;;8.07;;
77724;SDS011;66892;53.236;6.550;2023-05-07T11:38:49;13.85;;;9.25;;
77724;SDS011;66892;53.236;6.550;2023-05-07T11:41:16;11.73;;;7.93;;
77724;SDS011;66892;53.236;6.550;2023-05-07T11:43:55;13.20;;;9.23;;
77724;SDS011;66892;53.236;6.550;2023-05-07T11:46:22;13.07;;;7.97;;
77724;SDS011;66892;53.236;6.550;2023-05-07T11:48:49;13.65;;;8.20;;
77724;SDS011;66892;53.236;6.550;2023-05-07T11:51:18;12.85;;;9.25;;
77724;SDS011;66892;53.236;6.550;2023-05-07T11:53:46;11.50;;;7.43;;
77724;SDS011;66892;53.236;6.550;2023-05-07T11:56:13;11.98;;;7.50;;
77724;SDS011;66892;53.236;6.550;2023-05-07T11:58:41;12.80;;;8.93;;
77724;SDS011;66892;53.236;6.550;2023-05-07T12:01:08;13.43;;;7.90;;
77724;SDS011;66892;53.236;6.550;2023-05-07T12:03:35;12.63;;;7.68;;
77724;SDS011;66892;53.236;6.550;2023-05-07T12:06:02;11.98;;;9.23;;
77724;SDS011;66892;53.236;6.550;2023-05-07T12:08:32;12.95;;;8.15;;
77724;SDS011;66892;53.236;6.550;2023-05-07T12:10:59;11.88;;;7.97;;
77724;SDS011;66892;53.236;6.550;2023-05-07T12:13:25;12.65;;;8.27;;
77724;SDS011;66892;53.236;6.550;2023-05-07T12:15:51;10.55;;;7.70;;
77724;SDS011;66892;53.236;6.550;2023-05-07T12:18:18;11.30;;;7.82;;
77724;SDS011;66892;53.236;6.550;2023-05-07T12:20:45;10.38;;;6.97;;
77724;SDS011;66892;53.236;6.550;2023-05-07T12:23:12;11.52;;;7.10;;
77724;SDS011;66892;53.236;6.550;2023-05-07T12:25:39;10.27;;;7.50;;
77724;SDS011;66892;53.236;6.550;2023-05-07T12:28:12;12.57;;;7.47;;
77724;SDS011;66892;53.236;6.550;2023-05-07T12:33:04;11.63;;;8.35;;
77724;SDS011;66892;53.236;6.550;2023-05-07T12:35:31;11.02;;;7.28;;
77724;SDS011;66892;53.236;6.550;2023-05-07T12:37:58;12.63;;;7.45;;
77724;SDS011;66892;53.236;6.550;2023-05-07T12:40:34;11.45;;;7.07;;
77724;SDS011;66892;53.236;6.550;2023-05-07T12:43:01;10.48;;;7.70;;
77724;SDS011;66892;53.236;6.550;2023-05-07T12:45:29;10.88;;;7.00;;
77724;SDS011;66892;53.236;6.550;2023-05-07T12:47:55;13.13;;;8.35;;
77724;SDS011;66892;53.236;6.550;2023-05-07T12:50:22;11.68;;;7.50;;
77724;SDS011;66892;53.236;6.550;2023-05-07T12:52:48;10.88;;;7.53;;
77724;SDS011;66892;53.236;6.550;2023-05-07T12:55:14;13.25;;;7.32;;
77724;SDS011;66892;53.236;6.550;2023-05-07T12:57:42;10.75;;;7.03;;
77724;SDS011;66892;53.236;6.550;2023-05-07T13:00:11;12.35;;;8.45;;
77724;SDS011;66892;53.236;6.550;2023-05-07T13:02:40;11.98;;;7.60;;
77724;SDS011;66892;53.236;6.550;2023-05-07T13:05:07;11.93;;;7.43;;
77724;SDS011;66892;53.236;6.550;2023-05-07T13:07:34;10.60;;;7.13;;
77724;SDS011;66892;53.236;6.550;2023-05-07T13:10:00;11.50;;;6.93;;
77724;SDS011;66892;53.236;6.550;2023-05-07T13:12:26;11.18;;;7.00;;
77724;SDS011;66892;53.236;6.550;2023-05-07T13:14:52;12.70;;;7.70;;
77724;SDS011;66892;53.236;6.550;2023-05-07T13:17:18;12.00;;;7.35;;
77724;SDS011;66892;53.236;6.550;2023-05-07T13:19:45;9.95;;;7.75;;
77724;SDS011;66892;53.236;6.550;2023-05-07T13:22:11;10.73;;;8.18;;
77724;SDS011;66892;53.236;6.550;2023-05-07T13:24:37;9.93;;;7.40;;
77724;SDS011;66892;53.236;6.550;2023-05-07T13:27:03;10.68;;;8.10;;
77724;SDS011;66892;53.236;6.550;2023-05-07T13:29:29;10.82;;;8.05;;
77724;SDS011;66892;53.236;6.550;2023-05-07T13:31:56;10.88;;;7.38;;
77724;SDS011;66892;53.236;6.550;2023-05-07T13:34:22;11.45;;;7.30;;
77724;SDS011;66892;53.236;6.550;2023-05-07T13:36:49;10.93;;;7.53;;
77724;SDS011;66892;53.236;6.550;2023-05-07T13:39:16;12.10;;;8.07;;
77724;SDS011;66892;53.236;6.550;2023-05-07T13:41:42;10.80;;;7.22;;
77724;SDS011;66892;53.236;6.550;2023-05-07T13:44:07;11.57;;;7.22;;
77724;SDS011;66892;53.236;6.550;2023-05-07T13:46:33;10.88;;;7.80;;
77724;SDS011;66892;53.236;6.550;2023-05-07T13:49:00;10.13;;;7.25;;
77724;SDS011;66892;53.236;6.550;2023-05-07T13:51:26;9.82;;;6.72;;
77724;SDS011;66892;53.236;6.550;2023-05-07T13:53:54;13.38;;;7.53;;
77724;SDS011;66892;53.236;6.550;2023-05-07T13:56:20;11.23;;;6.82;;
77724;SDS011;66892;53.236;6.550;2023-05-07T13:58:46;10.55;;;7.40;;
77724;SDS011;66892;53.236;6.550;2023-05-07T14:01:12;10.77;;;7.63;;
77724;SDS011;66892;53.236;6.550;2023-05-07T14:03:38;12.43;;;7.43;;
77724;SDS011;66892;53.236;6.550;2023-05-07T14:06:05;9.75;;;6.53;;
77724;SDS011;66892;53.236;6.550;2023-05-07T14:08:31;10.43;;;7.38;;
77724;SDS011;66892;53.236;6.550;2023-05-07T14:10:58;10.05;;;6.90;;
77724;SDS011;66892;53.236;6.550;2023-05-07T14:13:25;10.02;;;6.97;;
77724;SDS011;66892;53.236;6.550;2023-05-07T14:15:52;11.00;;;7.13;;
77724;SDS011;66892;53.236;6.550;2023-05-07T14:18:18;11.02;;;7.35;;
77724;SDS011;66892;53.236;6.550;2023-05-07T14:20:44;10.43;;;7.60;;
77724;SDS011;66892;53.236;6.550;2023-05-07T14:23:12;10.90;;;7.43;;
77724;SDS011;66892;53.236;6.550;2023-05-07T14:25:38;11.63;;;7.28;;
77724;SDS011;66892;53.236;6.550;2023-05-07T14:28:06;9.88;;;6.47;;
77724;SDS011;66892;53.236;6.550;2023-05-07T14:30:32;9.82;;;6.60;;
77724;SDS011;66892;53.236;6.550;2023-05-07T14:32:58;9.90;;;6.78;;
77724;SDS011;66892;53.236;6.550;2023-05-07T14:35:24;10.20;;;7.43;;